createdAt,value
2018-10-01T00:01:55.094Z,100664.59
2018-10-01T00:04:24.762Z,100661.41
2018-10-01T00:06:54.522Z,100655.78
2018-10-01T00:09:24.243Z,100654.62
2018-10-01T00:11:57.933Z,100646.45
2018-10-01T00:14:27.594Z,100649.24
2018-10-01T00:16:57.278Z,100659.76
2018-10-01T00:19:32.094Z,100661.38
2018-10-01T00:22:07.012Z,100662.67
2018-10-01T00:24:36.657Z,100667.66
2018-10-01T00:27:06.646Z,100664.58
2018-10-01T00:29:36.545Z,100667.12
2018-10-01T00:32:06.308Z,100670.30
2018-10-01T00:34:36.091Z,100671.86
2018-10-01T00:37:06.177Z,100662.85
2018-10-01T00:39:35.916Z,100661.70
2018-10-01T00:42:05.602Z,100655.67
2018-10-01T00:44:35.298Z,100663.31
2018-10-01T00:47:04.976Z,100661.69
2018-10-01T00:49:34.647Z,100656.80
2018-10-01T00:52:04.385Z,100661.45
2018-10-01T00:54:34.151Z,100661.45
2018-10-01T00:57:05.911Z,100657.05
2018-10-01T00:59:35.562Z,100655.33
2018-10-01T01:02:05.326Z,100639.69
2018-10-01T01:04:35.067Z,100628.75
2018-10-01T01:07:04.759Z,100642.77
2018-10-01T01:09:34.427Z,100646.16
2018-10-01T01:12:04.278Z,100642.58
2018-10-01T01:14:34.076Z,100643.38
2018-10-01T01:17:03.900Z,100642.45
2018-10-01T01:19:33.573Z,100640.61
2018-10-01T01:22:03.548Z,100635.00
2018-10-01T01:24:33.247Z,100632.70
2018-10-01T01:27:08.336Z,100629.39
2018-10-01T01:29:38.090Z,100626.63
2018-10-01T01:32:07.842Z,100630.67
2018-10-01T01:34:37.571Z,100631.72
2018-10-01T01:37:07.292Z,100630.55
2018-10-01T01:39:37.076Z,100631.80
2018-10-01T01:42:06.832Z,100632.22
2018-10-01T01:44:36.550Z,100635.81
2018-10-01T01:47:10.707Z,100641.83
2018-10-01T01:49:44.607Z,100649.48
2018-10-01T01:52:15.071Z,100657.27
2018-10-01T01:54:44.700Z,100651.95
2018-10-01T01:57:14.478Z,100652.06
2018-10-01T01:59:46.079Z,100652.59
2018-10-01T02:02:15.768Z,100654.55
2018-10-01T02:04:45.368Z,100655.94
2018-10-01T02:07:14.999Z,100657.81
2018-10-01T02:09:44.709Z,100662.59
2018-10-01T02:12:14.333Z,100658.98
2018-10-01T02:14:44.060Z,100666.54
2018-10-01T02:17:13.812Z,100667.58
2018-10-01T02:19:43.515Z,100665.89
2018-10-01T02:22:13.152Z,100660.53
2018-10-01T02:24:42.839Z,100662.36
2018-10-01T02:27:12.575Z,100663.48
2018-10-01T02:29:42.258Z,100664.30
2018-10-01T02:32:11.942Z,100667.12
2018-10-01T02:34:41.604Z,100670.29
2018-10-01T02:37:11.335Z,100672.78
2018-10-01T02:39:41.011Z,100670.03
2018-10-01T02:42:10.659Z,100675.07
2018-10-01T02:44:42.382Z,100677.19
2018-10-01T02:47:12.166Z,100680.70
2018-10-01T02:49:41.860Z,100683.97
2018-10-01T02:52:16.689Z,100676.60
2018-10-01T02:54:46.432Z,100683.72
2018-10-01T02:57:16.187Z,100678.05
2018-10-01T02:59:45.948Z,100683.92
2018-10-01T03:02:15.684Z,100679.47
2018-10-01T03:04:45.391Z,100682.72
2018-10-01T03:07:15.012Z,100681.51
2018-10-01T03:09:44.829Z,100681.30
2018-10-01T03:12:14.543Z,100682.98
2018-10-01T03:14:44.262Z,100686.19
2018-10-01T03:17:13.954Z,100681.83
2018-10-01T03:19:43.615Z,100676.69
2018-10-01T03:22:13.259Z,100679.91
2018-10-01T03:24:42.876Z,100672.97
2018-10-01T03:27:12.570Z,100677.11
2018-10-01T03:29:42.346Z,100671.98
2018-10-01T03:32:12.132Z,100678.45
2018-10-01T03:34:41.969Z,100673.02
2018-10-01T03:37:11.699Z,100673.38
2018-10-01T03:39:41.459Z,100670.44
2018-10-01T03:42:11.086Z,100667.34
2018-10-01T03:44:40.848Z,100669.00
2018-10-01T03:47:10.559Z,100662.49
2018-10-01T03:49:40.287Z,100666.91
2018-10-01T03:52:09.978Z,100675.52
2018-10-01T03:54:39.771Z,100674.02
2018-10-01T03:57:10.277Z,100666.92
2018-10-01T03:59:40.034Z,100673.00
2018-10-01T04:02:09.785Z,100674.15
2018-10-01T04:04:39.459Z,100675.45
2018-10-01T04:07:09.248Z,100676.97
2018-10-01T04:09:38.918Z,100680.45
2018-10-01T04:12:08.651Z,100681.15
2018-10-01T04:14:38.450Z,100688.14
2018-10-01T04:17:08.275Z,100687.97
2018-10-01T04:19:37.967Z,100686.11
2018-10-01T04:22:07.733Z,100681.22
2018-10-01T04:24:37.434Z,100676.59
2018-10-01T04:27:07.264Z,100680.31
2018-10-01T04:29:39.067Z,100681.41
2018-10-01T04:32:08.921Z,100680.70
2018-10-01T04:37:13.415Z,100682.39
2018-10-01T04:39:43.094Z,100682.03
2018-10-01T04:42:13.072Z,100681.43
2018-10-01T04:44:42.861Z,100682.66
2018-10-01T04:47:12.589Z,100688.64
2018-10-01T04:49:42.264Z,100689.98
2018-10-01T04:52:11.902Z,100700.14
2018-10-01T04:54:41.579Z,100698.59
2018-10-01T04:57:11.334Z,100706.70
2018-10-01T04:59:41.039Z,100706.91
2018-10-01T05:02:10.791Z,100708.33
2018-10-01T05:04:40.559Z,100707.23
2018-10-01T05:07:10.302Z,100703.79
2018-10-01T05:09:39.979Z,100708.72
2018-10-01T05:12:09.677Z,100717.58
2018-10-01T05:14:39.497Z,100716.20
2018-10-01T05:17:09.189Z,100732.05
2018-10-01T05:19:38.934Z,100720.07
2018-10-01T05:22:08.775Z,100710.00
2018-10-01T05:24:38.441Z,100710.97
2018-10-01T05:27:08.180Z,100725.10
2018-10-01T05:29:38.088Z,100720.63
2018-10-01T05:32:07.901Z,100721.23
2018-10-01T05:34:37.575Z,100717.25
2018-10-01T05:37:07.361Z,100721.28
2018-10-01T05:39:37.584Z,100722.87
2018-10-01T05:42:07.555Z,100725.37
2018-10-01T05:44:37.251Z,100734.63
2018-10-01T05:47:06.992Z,100741.34
2018-10-01T05:49:36.737Z,100742.02
2018-10-01T05:52:07.293Z,100748.86
2018-10-01T05:54:37.051Z,100748.05
2018-10-01T05:57:06.920Z,100752.62
2018-10-01T05:59:36.867Z,100754.10
2018-10-01T06:02:06.769Z,100753.83
2018-10-01T06:04:36.960Z,100752.66
2018-10-01T06:07:07.233Z,100753.85
2018-10-01T06:09:37.075Z,100755.95
2018-10-01T06:12:07.184Z,100764.92
2018-10-01T06:14:37.084Z,100769.05
2018-10-01T06:17:06.800Z,100776.72
2018-10-01T06:19:36.635Z,100781.22
2018-10-01T06:22:06.540Z,100781.17
2018-10-01T06:24:36.459Z,100784.90
2018-10-01T06:27:06.794Z,100785.36
2018-10-01T06:29:36.551Z,100797.34
2018-10-01T06:32:06.693Z,100797.06
2018-10-01T06:34:36.369Z,100803.30
2018-10-01T06:37:06.135Z,100804.05
2018-10-01T06:39:35.877Z,100808.23
2018-10-01T06:42:05.720Z,100808.23
2018-10-01T06:44:35.497Z,100810.31
2018-10-01T06:47:05.189Z,100815.39
2018-10-01T06:49:35.267Z,100816.67
2018-10-01T06:52:05.090Z,100816.03
2018-10-01T06:54:35.275Z,100816.97
2018-10-01T06:57:05.152Z,100812.20
2018-10-01T06:59:36.300Z,100825.80
2018-10-01T07:02:05.983Z,100826.94
2018-10-01T07:04:35.742Z,100827.08
2018-10-01T07:07:05.545Z,100823.95
2018-10-01T07:09:35.377Z,100826.41
2018-10-01T07:12:05.088Z,100838.88
2018-10-01T07:14:34.843Z,100844.77
2018-10-01T07:17:04.676Z,100849.00
2018-10-01T07:19:34.354Z,100854.60
2018-10-01T07:22:04.061Z,100844.92
2018-10-01T07:24:33.727Z,100852.14
2018-10-01T07:27:03.473Z,100853.45
2018-10-01T07:29:33.398Z,100853.63
2018-10-01T07:32:03.233Z,100854.29
2018-10-01T07:34:33.032Z,100856.75
2018-10-01T07:37:02.766Z,100853.20
2018-10-01T07:39:32.463Z,100853.84
2018-10-01T07:42:02.196Z,100856.89
2018-10-01T07:44:32.191Z,100852.56
2018-10-01T07:47:02.090Z,100856.75
2018-10-01T07:49:31.812Z,100859.38
2018-10-01T07:52:01.637Z,100869.08
2018-10-01T07:54:31.622Z,100862.73
2018-10-01T07:57:01.625Z,100866.59
2018-10-01T07:59:31.498Z,100864.27
2018-10-01T08:02:01.523Z,100870.12
2018-10-01T08:04:31.616Z,100863.39
2018-10-01T08:07:01.968Z,100869.80
2018-10-01T08:09:31.885Z,100875.67
2018-10-01T08:12:01.742Z,100884.02
2018-10-01T08:14:31.752Z,100881.84
2018-10-01T08:17:01.716Z,100889.09
2018-10-01T08:19:31.749Z,100885.61
2018-10-01T08:22:01.831Z,100891.93
2018-10-01T08:24:31.658Z,100897.73
2018-10-01T08:27:01.394Z,100902.62
2018-10-01T08:29:31.195Z,100905.04
2018-10-01T08:32:01.084Z,100909.31
2018-10-01T08:34:30.844Z,100909.25
2018-10-01T08:37:01.279Z,100909.05
2018-10-01T08:39:31.165Z,100921.37
2018-10-01T08:42:01.022Z,100914.05
2018-10-01T08:44:30.767Z,100914.77
2018-10-01T08:47:00.501Z,100921.17
2018-10-01T08:50:39.064Z,100927.44
2018-10-01T08:53:27.660Z,100925.55
2018-10-01T08:55:57.444Z,100935.64
2018-10-01T08:58:27.291Z,100936.06
2018-10-01T09:00:57.085Z,100939.05
2018-10-01T09:03:26.769Z,100928.23
2018-10-01T09:05:56.624Z,100935.56
2018-10-01T09:08:27.395Z,100934.64
2018-10-01T09:10:57.152Z,100930.07
2018-10-01T09:13:34.041Z,100932.67
2018-10-01T09:16:03.862Z,100922.98
2018-10-01T09:18:33.498Z,100931.63
2018-10-01T09:21:03.138Z,100942.17
2018-10-01T09:23:33.060Z,100944.48
2018-10-01T09:26:02.863Z,100938.47
2018-10-01T09:28:51.611Z,100961.50
2018-10-01T09:31:21.521Z,100944.16
2018-10-01T09:33:51.353Z,100957.09
2018-10-01T09:36:20.999Z,100950.56
2018-10-01T09:38:50.651Z,100949.50
2018-10-01T09:41:20.414Z,100945.83
2018-10-01T09:43:50.146Z,100955.27
2018-10-01T09:46:20.311Z,100943.42
2018-10-01T09:48:49.990Z,100947.16
2018-10-01T09:51:19.633Z,100940.86
2018-10-01T09:53:49.343Z,100948.00
2018-10-01T09:56:18.978Z,100943.59
2018-10-01T09:58:48.683Z,100940.37
2018-10-01T10:01:18.461Z,100947.36
2018-10-01T10:03:48.400Z,100933.23
2018-10-01T10:06:18.196Z,100935.27
2018-10-01T10:08:47.935Z,100927.30
2018-10-01T10:11:17.623Z,100924.86
2018-10-01T10:13:48.375Z,100941.87
2018-10-01T10:16:18.185Z,100941.03
2018-10-01T10:18:47.659Z,100939.68
2018-10-01T10:21:17.327Z,100942.55
2018-10-01T10:23:47.036Z,100948.97
2018-10-01T10:26:16.844Z,100953.16
2018-10-01T10:28:46.446Z,100951.95
2018-10-01T10:31:16.105Z,100951.02
2018-10-01T10:33:55.472Z,100939.91
2018-10-01T10:36:25.289Z,100941.59
2018-10-01T10:38:55.059Z,100929.58
2018-10-01T10:41:35.202Z,100937.09
2018-10-01T10:44:14.884Z,100942.48
2018-10-01T10:46:44.706Z,100940.48
2018-10-01T10:49:14.464Z,100949.42
2018-10-01T10:51:44.299Z,100948.73
2018-10-01T10:54:14.200Z,100940.40
2018-10-01T10:56:44.005Z,100955.08
2018-10-01T10:59:13.776Z,100956.04
2018-10-01T11:01:43.511Z,100958.84
2018-10-01T11:04:13.374Z,100963.27
2018-10-01T11:06:43.108Z,100964.65
2018-10-01T11:09:13.073Z,100949.94
2018-10-01T11:11:42.855Z,100953.11
2018-10-01T11:14:12.770Z,100957.27
2018-10-01T11:16:42.477Z,100965.53
2018-10-01T11:19:12.351Z,100967.25
2018-10-01T11:21:42.092Z,100995.53
2018-10-01T11:24:11.727Z,101003.80
2018-10-01T11:26:41.483Z,101033.05
2018-10-01T11:29:11.423Z,101040.73
2018-10-01T11:31:41.154Z,101040.81
2018-10-01T11:34:10.878Z,101049.36
2018-10-01T11:36:40.903Z,101042.75
2018-10-01T11:39:12.782Z,101047.25
2018-10-01T11:41:42.571Z,101036.81
2018-10-01T11:44:12.350Z,101047.13
2018-10-01T11:46:42.179Z,101043.87
2018-10-01T11:49:12.075Z,101055.82
2018-10-01T11:51:42.016Z,101058.84
2018-10-01T11:54:11.666Z,101057.85
2018-10-01T11:56:41.463Z,101061.99
2018-10-01T11:59:11.224Z,101056.37
2018-10-01T12:01:41.053Z,101060.78
2018-10-01T12:04:10.871Z,101064.10
2018-10-01T12:06:40.708Z,101074.84
2018-10-01T12:09:12.203Z,101072.34
2018-10-01T12:11:42.008Z,101069.31
2018-10-01T12:14:12.196Z,101074.98
2018-10-01T12:16:42.208Z,101081.36
2018-10-01T12:19:12.183Z,101071.53
2018-10-01T12:21:42.203Z,101071.39
2018-10-01T12:24:11.915Z,101071.91
2018-10-01T12:26:41.758Z,101060.81
2018-10-01T12:29:11.762Z,101068.75
2018-10-01T12:31:41.811Z,101063.18
2018-10-01T12:34:11.618Z,101063.42
2018-10-01T12:36:41.423Z,101052.19
2018-10-01T12:39:11.425Z,101054.42
2018-10-01T12:41:41.234Z,101054.69
2018-10-01T12:44:11.456Z,101052.34
2018-10-01T12:46:41.367Z,101056.73
2018-10-01T12:49:11.180Z,101050.78
2018-10-01T12:51:41.019Z,101049.92
2018-10-01T12:54:10.811Z,101048.17
2018-10-01T12:56:40.705Z,101050.28
2018-10-01T12:59:10.540Z,101040.26
2018-10-01T13:01:40.280Z,101042.41
2018-10-01T13:04:10.008Z,101034.40
2018-10-01T13:06:39.977Z,101036.30
2018-10-01T13:09:12.138Z,101039.50
2018-10-01T13:11:42.172Z,101030.63
2018-10-01T13:14:11.862Z,101024.94
2018-10-01T13:16:41.680Z,101020.25
2018-10-01T13:19:11.467Z,101023.37
2018-10-01T13:21:41.247Z,101025.03
2018-10-01T13:24:11.058Z,101019.07
2018-10-01T13:26:40.855Z,101024.33
2018-10-01T13:29:10.601Z,101022.25
2018-10-01T13:31:40.271Z,101046.05
2018-10-01T13:34:10.091Z,101045.75
2018-10-01T13:36:39.962Z,101053.77
2018-10-01T13:39:11.649Z,101055.11
2018-10-01T13:41:41.889Z,101058.77
2018-10-01T13:44:11.684Z,101054.80
2018-10-01T13:46:41.552Z,101057.05
2018-10-01T13:49:11.447Z,101054.81
2018-10-01T13:51:41.252Z,101057.37
2018-10-01T13:54:11.167Z,101056.74
2018-10-01T13:56:40.919Z,101055.42
2018-10-01T13:59:10.660Z,101055.62
2018-10-01T14:01:40.478Z,101074.50
2018-10-01T14:04:10.239Z,101066.92
2018-10-01T14:06:40.026Z,101060.07
2018-10-01T14:09:11.920Z,101052.66
2018-10-01T14:11:41.714Z,101058.48
2018-10-01T14:14:11.486Z,101059.16
2018-10-01T14:16:41.380Z,101068.03
2018-10-01T14:19:11.158Z,101062.89
2018-10-01T14:21:40.978Z,101071.02
2018-10-01T14:24:10.843Z,101074.63
2018-10-01T14:26:40.643Z,101086.29
2018-10-01T14:29:10.572Z,101085.91
2018-10-01T14:31:40.657Z,101085.05
2018-10-01T14:34:10.508Z,101090.15
2018-10-01T14:36:40.359Z,101077.70
2018-10-01T14:39:10.783Z,101075.97
2018-10-01T14:41:40.590Z,101080.17
2018-10-01T14:44:10.349Z,101083.87
2018-10-01T14:46:40.307Z,101087.30
2018-10-01T14:49:10.692Z,101091.39
2018-10-01T14:51:53.008Z,101095.70
2018-10-01T14:54:22.787Z,101095.60
2018-10-01T14:56:52.615Z,101099.80
2018-10-01T14:59:22.483Z,101090.09
2018-10-01T15:01:52.491Z,101100.64
2018-10-01T15:04:22.752Z,101098.02
2018-10-01T15:06:52.488Z,101114.84
2018-10-01T15:09:22.493Z,101102.95
2018-10-01T15:11:52.903Z,101110.47
2018-10-01T15:14:22.700Z,101120.91
2018-10-01T15:16:52.936Z,101121.53
2018-10-01T15:19:22.812Z,101122.89
2018-10-01T15:21:53.262Z,101120.06
2018-10-01T15:24:24.533Z,101130.33
2018-10-01T15:26:54.434Z,101129.47
2018-10-01T15:29:24.318Z,101134.17
2018-10-01T15:31:54.068Z,101132.50
2018-10-01T15:34:24.292Z,101135.89
2018-10-01T15:36:54.084Z,101138.37
2018-10-01T15:39:23.970Z,101148.81
2018-10-01T15:41:54.303Z,101141.20
2018-10-01T15:44:24.446Z,101145.53
2018-10-01T15:46:54.343Z,101144.00
2018-10-01T15:49:24.253Z,101159.87
2018-10-01T15:51:54.269Z,101164.30
2018-10-01T15:54:24.503Z,101163.69
2018-10-01T15:56:54.205Z,101166.50
2018-10-01T15:59:23.965Z,101179.85
2018-10-01T16:01:53.826Z,101181.24
2018-10-01T16:04:23.885Z,101186.05
2018-10-01T16:06:53.719Z,101189.89
2018-10-01T16:09:24.326Z,101190.11
2018-10-01T16:11:54.245Z,101190.72
2018-10-01T16:14:24.002Z,101191.19
2018-10-01T16:16:53.972Z,101194.51
2018-10-01T16:19:23.875Z,101189.27
2018-10-01T16:21:54.026Z,101186.42
2018-10-01T16:24:23.975Z,101189.90
2018-10-01T16:26:53.712Z,101193.72
2018-10-01T16:29:23.465Z,101194.03
2018-10-01T16:31:53.262Z,101194.61
2018-10-01T16:34:23.190Z,101192.64
2018-10-01T16:36:53.304Z,101200.73
2018-10-01T16:39:23.134Z,101203.97
2018-10-01T16:41:53.087Z,101202.25
2018-10-01T16:44:22.994Z,101211.09
2018-10-01T16:46:52.702Z,101207.94
2018-10-01T16:49:22.502Z,101213.27
2018-10-01T16:51:52.270Z,101216.72
2018-10-01T16:54:22.195Z,101220.13
2018-10-01T16:56:51.934Z,101218.70
2018-10-01T16:59:21.662Z,101225.61
2018-10-01T17:01:51.724Z,101228.52
2018-10-01T17:04:21.985Z,101231.67
2018-10-01T17:06:51.887Z,101232.29
2018-10-01T17:09:21.609Z,101238.48
2018-10-01T17:11:51.391Z,101248.60
2018-10-01T17:14:21.099Z,101270.17
2018-10-01T17:16:50.903Z,101273.04
2018-10-01T17:19:21.796Z,101279.23
2018-10-01T17:21:51.659Z,101296.07
2018-10-01T17:24:21.372Z,101313.67
2018-10-01T17:26:51.159Z,101315.88
2018-10-01T17:29:20.922Z,101320.16
2018-10-01T17:31:50.629Z,101308.92
2018-10-01T17:34:20.602Z,101311.03
2018-10-01T17:36:50.365Z,101308.61
2018-10-01T17:39:20.220Z,101307.73
2018-10-01T17:41:49.963Z,101311.77
2018-10-01T17:44:19.710Z,101311.80
2018-10-01T17:46:49.362Z,101316.47
2018-10-01T17:49:19.443Z,101321.76
2018-10-01T17:51:49.258Z,101324.09
2018-10-01T17:54:19.196Z,101321.55
2018-10-01T17:56:48.930Z,101322.70
2018-10-01T17:59:18.996Z,101334.78
2018-10-01T18:01:48.806Z,101336.20
2018-10-01T18:04:18.622Z,101340.97
2018-10-01T18:06:49.324Z,101335.78
2018-10-01T18:09:19.117Z,101342.81
2018-10-01T18:11:48.876Z,101338.58
2018-10-01T18:14:18.674Z,101344.11
2018-10-01T18:16:48.380Z,101350.81
2018-10-01T18:19:18.220Z,101350.20
2018-10-01T18:21:48.071Z,101349.08
2018-10-01T18:24:17.938Z,101353.39
2018-10-01T18:26:47.833Z,101357.12
2018-10-01T18:29:17.776Z,101356.66
2018-10-01T18:31:47.590Z,101357.59
2018-10-01T18:34:17.415Z,101361.98
2018-10-01T18:36:47.377Z,101363.52
2018-10-01T18:39:21.010Z,101369.28
2018-10-01T18:41:50.776Z,101372.33
2018-10-01T18:44:22.328Z,101373.34
2018-10-01T18:46:52.081Z,101374.92
2018-10-01T18:49:22.302Z,101380.16
2018-10-01T18:51:52.163Z,101380.39
2018-10-01T18:54:22.216Z,101383.58
2018-10-01T18:56:52.062Z,101378.77
2018-10-01T18:59:21.862Z,101381.73
2018-10-01T19:01:51.758Z,101380.40
2018-10-01T19:04:21.587Z,101377.53
2018-10-01T19:06:51.433Z,101379.00
2018-10-01T19:09:21.270Z,101374.19
2018-10-01T19:11:51.332Z,101371.42
2018-10-01T19:14:21.056Z,101371.88
2018-10-01T19:16:50.859Z,101370.88
2018-10-01T19:19:20.656Z,101367.28
2018-10-01T19:21:50.490Z,101374.41
2018-10-01T19:24:20.337Z,101373.28
2018-10-01T19:26:50.376Z,101373.84
2018-10-01T19:29:20.336Z,101377.08
2018-10-01T19:31:50.131Z,101388.41
2018-10-01T19:34:20.130Z,101378.88
2018-10-01T19:36:49.916Z,101384.64
2018-10-01T19:39:21.185Z,101389.06
2018-10-01T19:41:51.384Z,101387.41
2018-10-01T19:44:21.775Z,101390.70
2018-10-01T19:46:51.782Z,101388.06
2018-10-01T19:49:23.978Z,101392.86
2018-10-01T19:51:53.853Z,101390.20
2018-10-01T19:54:23.833Z,101385.81
2018-10-01T19:56:54.773Z,101385.49
2018-10-01T19:59:24.498Z,101385.61
2018-10-01T20:01:54.187Z,101391.99
2018-10-01T20:04:24.271Z,101393.28
2018-10-01T20:06:53.987Z,101394.13
2018-10-01T20:09:23.791Z,101384.57
2018-10-01T20:11:53.448Z,101397.39
2018-10-01T20:14:23.258Z,101399.59
2018-10-01T20:16:53.437Z,101400.34
2018-10-01T20:19:23.203Z,101397.09
2018-10-01T20:21:53.209Z,101390.69
2018-10-01T20:24:22.933Z,101392.55
2018-10-01T20:26:52.895Z,101396.61
2018-10-01T20:29:22.982Z,101395.70
2018-10-01T20:31:52.421Z,101394.99
2018-10-01T20:34:22.206Z,101393.34
2018-10-01T20:36:51.959Z,101396.88
2018-10-01T20:39:21.831Z,101397.06
2018-10-01T20:41:51.686Z,101398.45
2018-10-01T20:44:21.552Z,101400.00
2018-10-01T20:46:51.534Z,101404.80
2018-10-01T20:49:21.335Z,101399.26
2018-10-01T20:51:51.088Z,101399.92
2018-10-01T20:54:20.874Z,101402.59
2018-10-01T20:56:50.589Z,101405.22
2018-10-01T20:59:20.608Z,101403.36
2018-10-01T21:01:50.479Z,101401.86
2018-10-01T21:04:20.400Z,101407.94
2018-10-01T21:06:50.260Z,101406.53
2018-10-01T21:09:20.576Z,101408.81
2018-10-01T21:11:50.612Z,101408.86
2018-10-01T21:14:20.736Z,101406.06
2018-10-01T21:16:50.808Z,101402.27
2018-10-01T21:19:20.860Z,101410.00
2018-10-01T21:21:50.831Z,101409.67
2018-10-01T21:24:20.815Z,101404.70
2018-10-01T21:26:50.665Z,101398.17
2018-10-01T21:29:20.556Z,101397.51
2018-10-01T21:31:50.378Z,101400.41
2018-10-01T21:34:23.184Z,101403.45
2018-10-01T21:36:52.883Z,101401.98
2018-10-01T21:39:51.680Z,101403.48
2018-10-01T21:42:21.556Z,101404.34
2018-10-01T21:44:51.367Z,101400.46
2018-10-01T21:47:21.666Z,101403.34
2018-10-01T21:49:51.497Z,101398.05
2018-10-01T21:52:21.219Z,101403.97
2018-10-01T21:54:50.963Z,101396.92
2018-10-01T21:57:20.908Z,101400.01
2018-10-01T21:59:51.077Z,101395.89
2018-10-01T22:02:21.166Z,101393.83
2018-10-01T22:04:50.983Z,101382.95
2018-10-01T22:07:20.806Z,101394.59
2018-10-01T22:09:50.746Z,101392.41
2018-10-01T22:12:21.005Z,101397.18
2018-10-01T22:14:51.297Z,101391.43
2018-10-01T22:17:21.020Z,101393.38
2018-10-01T22:19:50.788Z,101390.95
2018-10-01T22:22:20.599Z,101391.94
2018-10-01T22:24:50.335Z,101392.98
2018-10-01T22:27:23.386Z,101392.58
2018-10-01T22:29:53.147Z,101391.69
2018-10-01T22:32:22.861Z,101391.87
2018-10-01T22:34:52.640Z,101383.47
2018-10-01T22:37:22.475Z,101389.19
2018-10-01T22:39:52.365Z,101385.75
2018-10-01T22:42:22.062Z,101380.38
2018-10-01T22:44:51.961Z,101378.38
2018-10-01T22:47:21.647Z,101377.48
2018-10-01T22:49:51.347Z,101377.69
2018-10-01T22:52:21.349Z,101376.09
2018-10-01T22:54:51.058Z,101375.52
2018-10-01T22:57:20.772Z,101382.30
2018-10-01T22:59:50.630Z,101377.65
2018-10-01T23:02:20.430Z,101378.50
2018-10-01T23:04:50.271Z,101380.74
2018-10-01T23:07:20.008Z,101375.66
2018-10-01T23:09:49.670Z,101380.40
2018-10-01T23:12:19.424Z,101378.61
2018-10-01T23:14:49.142Z,101388.85
2018-10-01T23:17:18.854Z,101381.61
2018-10-01T23:19:48.636Z,101382.66
2018-10-01T23:22:18.454Z,101383.30
2018-10-01T23:24:48.310Z,101375.42
2018-10-01T23:27:18.302Z,101376.42
2018-10-01T23:29:48.270Z,101383.40
2018-10-01T23:32:18.105Z,101378.63
2018-10-01T23:34:48.007Z,101385.72
2018-10-01T23:37:17.730Z,101383.42
2018-10-01T23:39:47.483Z,101380.38
2018-10-01T23:42:17.150Z,101383.94
2018-10-01T23:44:47.083Z,101378.46
2018-10-01T23:47:16.811Z,101375.66
2018-10-01T23:49:46.642Z,101367.38
2018-10-01T23:52:16.350Z,101366.67
2018-10-01T23:54:46.067Z,101375.14
2018-10-01T23:57:16.034Z,101371.02
2018-10-01T23:59:46.142Z,101370.99
